Time;durP1;ratioP1;P1;durP2;ratioP2;P2;SDS_P1;SDS_P2;PMS_P1;PMS_P2;Temp;Humidity;BMP_temperature;BMP_pressure;BME280_temperature;BME280_humidity;BME280_pressure;Samples;Min_cycle;Max_cycle;Signal;HPM_P1;HPM_P2
2021/12/08 09:45:29;;;;;;;4.97;2.20;;;12.80;69.70;;;;;;2299557;62;29970;-78
2021/12/08 09:47:56;;;;;;;3.70;2.00;;;12.80;71.00;;;;;;2299632;62;30169;-79
2021/12/08 09:50:22;;;;;;;4.82;1.75;;;13.00;72.10;;;;;;2292267;62;30133;-86
2021/12/08 09:52:48;;;;;;;6.20;1.80;;;13.10;73.00;;;;;;2299533;62;30033;-86
2021/12/08 09:55:16;;;;;;;3.92;1.70;;;13.30;73.40;;;;;;2299570;62;30052;-84
2021/12/08 09:57:42;;;;;;;4.18;1.67;;;13.30;73.90;;;;;;2299598;62;30754;-84
2021/12/08 10:00:15;;;;;;;3.67;1.75;;;13.40;74.40;;;;;;2289278;62;30215;-77
2021/12/08 10:02:41;;;;;;;2.33;1.55;;;13.50;74.60;;;;;;2283880;62;31176;-78
2021/12/08 10:05:11;;;;;;;3.45;1.50;;;13.60;74.80;;;;;;2286128;62;30420;-82
2021/12/08 10:07:37;;;;;;;1.67;1.23;;;13.60;75.00;;;;;;2294355;62;30064;-84
2021/12/08 10:10:04;;;;;;;3.90;1.50;;;13.70;75.10;;;;;;2284665;62;30120;-81
2021/12/08 10:12:33;;;;;;;2.45;1.23;;;13.80;75.20;;;;;;2283635;62;30777;-81
2021/12/08 10:14:59;;;;;;;4.07;1.60;;;13.80;75.20;;;;;;2290855;62;30128;-86
2021/12/08 10:17:25;;;;;;;3.30;1.50;;;13.90;75.20;;;;;;2290505;62;30504;-85
2021/12/08 10:20:05;;;;;;;4.57;1.80;;;13.90;75.10;;;;;;2291118;62;30129;-81
2021/12/08 10:22:31;;;;;;;7.35;2.00;;;13.90;74.10;;;;;;2292499;62;30238;-81
2021/12/08 10:25:29;;;;;;;2.30;1.30;;;13.90;75.30;;;;;;2291995;62;31329;-86
2021/12/08 10:28:03;;;;;;;4.70;1.50;;;13.90;75.00;;;;;;2289669;62;30188;-79
2021/12/08 10:30:29;;;;;;;2.33;1.10;;;14.00;74.90;;;;;;2290510;62;30197;-83
2021/12/08 10:32:55;;;;;;;4.38;1.67;;;14.00;75.20;;;;;;2290545;62;30019;-82
2021/12/08 10:35:43;;;;;;;4.10;1.73;;;14.10;75.10;;;;;;2290830;62;31021;-85
2021/12/08 10:38:09;;;;;;;4.07;1.50;;;14.20;74.00;;;;;;2287071;62;30005;-78
2021/12/08 10:40:35;;;;;;;7.20;1.63;;;14.20;74.70;;;;;;2290998;62;29980;-84
2021/12/08 10:43:13;;;;;;;3.65;1.30;;;14.20;74.50;;;;;;2290171;62;30156;-78
2021/12/08 10:45:38;;;;;;;3.45;1.38;;;14.20;73.80;;;;;;2290320;62;31255;-80
2021/12/08 10:48:07;;;;;;;2.53;1.20;;;14.20;74.50;;;;;;2290027;62;30259;-78
2021/12/08 10:56:38;;;;;;;2.50;1.65;;;14.20;73.70;;;;;;2285619;62;30695;-79
2021/12/08 10:59:04;;;;;;;6.82;1.52;;;14.20;74.50;;;;;;2270950;62;30219;-75
2021/12/08 11:01:30;;;;;;;2.65;1.38;;;14.30;74.70;;;;;;2284916;62;30390;-79
2021/12/08 11:04:01;;;;;;;5.70;1.67;;;14.30;74.50;;;;;;2285149;62;30432;-81
2021/12/08 11:06:31;;;;;;;1.90;1.33;;;14.30;74.10;;;;;;2277969;62;30175;-75
2021/12/08 11:08:57;;;;;;;2.50;1.08;;;14.30;74.10;;;;;;2285432;62;29945;-79
2021/12/08 11:11:29;;;;;;;4.72;1.67;;;14.30;74.30;;;;;;2285166;62;30024;-75
2021/12/08 11:13:56;;;;;;;2.33;1.35;;;14.30;74.40;;;;;;2285367;62;30004;-81
2021/12/08 11:16:27;;;;;;;2.58;1.13;;;14.30;74.50;;;;;;2285088;62;30236;-80
2021/12/08 11:19:02;;;;;;;2.53;1.40;;;14.40;74.50;;;;;;2277975;62;30117;-83
2021/12/08 11:21:35;;;;;;;2.70;1.40;;;14.40;74.30;;;;;;2278233;62;30115;-84
2021/12/08 11:24:06;;;;;;;3.35;1.30;;;14.40;74.20;;;;;;2277862;62;30920;-84
2021/12/08 11:26:37;;;;;;;33.13;4.90;;;14.40;74.20;;;;;;2277493;62;30098;-77
2021/12/08 11:29:10;;;;;;;6.13;1.73;;;14.40;74.30;;;;;;2285266;62;30198;-77
2021/12/08 11:31:40;;;;;;;3.67;1.50;;;14.40;73.90;;;;;;2284580;62;30033;-77
2021/12/08 11:34:20;;;;;;;4.03;1.83;;;14.40;73.80;;;;;;2285329;62;30946;-78
2021/12/08 11:36:51;;;;;;;3.53;1.67;;;14.50;73.50;;;;;;2285208;62;30434;-75
2021/12/08 11:39:22;;;;;;;3.78;1.50;;;14.50;73.70;;;;;;2284994;62;30422;-75
2021/12/08 11:41:59;;;;;;;1.60;1.20;;;14.50;73.40;;;;;;2285280;62;30123;-83
2021/12/08 11:44:27;;;;;;;2.97;1.50;;;14.50;73.40;;;;;;2271356;62;30130;-85
2021/12/08 11:46:55;;;;;;;2.50;1.38;;;14.50;73.40;;;;;;2268132;62;30095;-83
2021/12/08 11:49:23;;;;;;;4.43;1.30;;;14.50;73.40;;;;;;2268262;62;30066;-76
2021/12/08 11:52:09;;;;;;;2.55;1.33;;;14.60;73.50;;;;;;2268633;62;30139;-76
2021/12/08 11:54:37;;;;;;;3.75;1.33;;;14.60;73.10;;;;;;2268699;62;31984;-74
2021/12/08 11:57:11;;;;;;;3.85;1.80;;;14.60;73.20;;;;;;2267848;62;30732;-75
2021/12/08 12:00:02;;;;;;;2.55;1.27;;;14.60;73.20;;;;;;2268589;62;29955;-71
2021/12/08 12:02:30;;;;;;;2.90;1.58;;;14.60;72.50;;;;;;2268905;62;30212;-74
2021/12/08 12:04:56;;;;;;;3.10;1.52;;;14.60;73.00;;;;;;2268061;62;30795;-74
2021/12/08 12:07:22;;;;;;;2.50;1.42;;;14.60;72.90;;;;;;2267809;62;30091;-75
2021/12/08 12:09:49;;;;;;;6.70;1.75;;;14.60;73.00;;;;;;2269143;62;29917;-75
2021/12/08 12:12:15;;;;;;;3.30;1.33;;;14.50;73.30;;;;;;2267403;62;29988;-75
2021/12/08 12:14:41;;;;;;;2.58;1.33;;;14.50;73.30;;;;;;2267148;62;30676;-75
2021/12/08 12:17:07;;;;;;;5.35;1.60;;;14.50;73.50;;;;;;2272139;62;30556;-74
2021/12/08 12:19:39;;;;;;;3.88;1.42;;;14.50;73.20;;;;;;2276802;62;30132;-74
2021/12/08 12:22:13;;;;;;;4.95;1.50;;;14.50;73.00;;;;;;2276271;62;30152;-74
2021/12/08 12:24:53;;;;;;;2.55;1.60;;;14.50;73.00;;;;;;2276125;62;30106;-74
2021/12/08 12:27:43;;;;;;;3.20;1.30;;;14.40;73.00;;;;;;2276060;62;30394;-74
2021/12/08 12:30:21;;;;;;;4.18;1.73;;;14.40;73.50;;;;;;2276766;62;30662;-74
2021/12/08 12:32:51;;;;;;;3.78;1.52;;;14.40;73.40;;;;;;2276867;62;30162;-75
2021/12/08 12:35:31;;;;;;;1.85;1.20;;;14.30;73.30;;;;;;2269055;62;30216;-73
2021/12/08 12:38:09;;;;;;;2.72;1.15;;;14.30;73.80;;;;;;2276264;62;30013;-85
2021/12/08 12:40:40;;;;;;;18.27;3.25;;;14.30;73.90;;;;;;2275810;62;30084;-75
2021/12/08 12:43:06;;;;;;;2.63;1.40;;;14.30;74.10;;;;;;2277040;62;29981;-74
2021/12/08 12:45:44;;;;;;;2.60;1.10;;;14.30;73.90;;;;;;2292565;62;30806;-74
2021/12/08 12:48:20;;;;;;;3.22;1.42;;;14.40;74.00;;;;;;2278060;62;30398;-74
2021/12/08 12:51:10;;;;;;;3.25;1.20;;;14.30;73.90;;;;;;2292500;62;30292;-74
2021/12/08 12:53:35;;;;;;;4.10;1.60;;;14.40;73.90;;;;;;2285670;62;30102;-74
2021/12/08 12:56:01;;;;;;;1.98;1.20;;;14.40;73.90;;;;;;2292487;62;30602;-74
2021/12/08 12:58:50;;;;;;;2.13;1.17;;;14.40;73.90;;;;;;2292525;62;30779;-74
2021/12/08 13:01:24;;;;;;;3.08;1.45;;;14.40;74.10;;;;;;2282350;62;30885;-75
2021/12/08 13:03:52;;;;;;;1.88;0.88;;;14.50;74.10;;;;;;2283078;62;30557;-73
2021/12/08 13:06:47;;;;;;;3.28;1.30;;;14.40;74.00;;;;;;2291555;62;30704;-75
2021/12/08 13:09:39;;;;;;;3.38;1.55;;;14.50;74.20;;;;;;2284923;62;30112;-75
2021/12/08 13:12:15;;;;;;;1.95;1.27;;;14.50;74.30;;;;;;2291804;62;30157;-75
2021/12/08 13:14:41;;;;;;;2.03;1.10;;;14.50;74.10;;;;;;2284379;62;30225;-76
2021/12/08 13:17:19;;;;;;;1.65;1.20;;;14.50;74.20;;;;;;2283504;62;30031;-80
2021/12/08 13:19:47;;;;;;;2.88;1.30;;;14.50;74.30;;;;;;2284247;62;30619;-80
2021/12/08 13:22:44;;;;;;;3.22;1.58;;;14.50;74.20;;;;;;2291650;62;30173;-80
2021/12/08 13:25:23;;;;;;;2.85;1.02;;;14.50;74.50;;;;;;2286335;62;30414;-82
2021/12/08 13:27:52;;;;;;;2.22;1.20;;;14.50;74.40;;;;;;2287618;62;30283;-76
2021/12/08 13:30:20;;;;;;;2.33;1.25;;;14.50;74.30;;;;;;2282058;62;30434;-76
2021/12/08 13:32:47;;;;;;;3.65;1.40;;;14.50;74.40;;;;;;2278597;62;30125;-73
2021/12/08 13:35:37;;;;;;;1.80;1.15;;;14.50;74.40;;;;;;2291802;62;30326;-73
2021/12/08 13:38:03;;;;;;;1.83;1.10;;;14.50;74.50;;;;;;2283389;62;30287;-74
2021/12/08 13:40:58;;;;;;;1.27;1.17;;;14.50;74.40;;;;;;2276931;62;30111;-74
2021/12/08 13:43:41;;;;;;;2.05;1.00;;;14.60;74.50;;;;;;2282665;62;30300;-73
2021/12/08 13:46:10;;;;;;;5.95;1.23;;;14.60;74.40;;;;;;2291150;62;30106;-74
2021/12/08 13:48:56;;;;;;;1.80;1.23;;;14.60;74.40;;;;;;2283891;62;30856;-74
2021/12/08 13:51:24;;;;;;;2.97;1.30;;;14.60;74.40;;;;;;2291735;62;30447;-72
2021/12/08 13:54:35;;;;;;;2.38;1.23;;;14.60;74.40;;;;;;2291996;62;30132;-73
2021/12/08 13:57:03;;;;;;;3.22;1.20;;;14.70;74.30;;;;;;2290504;62;30044;-72
2021/12/08 13:59:51;;;;;;;1.30;1.00;;;14.70;74.20;;;;;;2292273;62;30134;-72
2021/12/08 14:02:20;;;;;;;1.63;1.10;;;14.80;74.10;;;;;;2292667;62;30906;-72
2021/12/08 14:04:46;;;;;;;1.95;1.10;;;14.80;74.10;;;;;;2292514;62;30116;-72
2021/12/08 14:07:17;;;;;;;1.58;1.00;;;14.80;74.10;;;;;;2292410;62;30055;-72
2021/12/08 14:09:42;;;;;;;3.08;1.10;;;14.80;74.10;;;;;;2284948;62;30964;-82
2021/12/08 14:12:08;;;;;;;2.55;1.20;;;14.80;74.30;;;;;;2292398;62;31698;-81
2021/12/08 14:14:34;;;;;;;3.35;1.25;;;14.80;74.50;;;;;;2292265;62;29985;-81
2021/12/08 14:17:00;;;;;;;1.55;1.10;;;14.80;74.50;;;;;;2292597;62;29962;-81
2021/12/08 14:19:39;;;;;;;3.03;1.38;;;14.90;74.50;;;;;;2292391;62;30964;-81
2021/12/08 14:22:05;;;;;;;2.63;1.05;;;14.90;74.40;;;;;;2292227;62;30029;-81
2021/12/08 14:24:31;;;;;;;5.35;1.23;;;14.90;74.40;;;;;;2292473;62;30726;-81
2021/12/08 14:26:57;;;;;;;5.63;1.30;;;14.90;74.40;;;;;;2284836;62;30020;-81
2021/12/08 14:29:25;;;;;;;2.78;1.15;;;14.90;74.50;;;;;;2292622;62;30742;-81
2021/12/08 14:31:56;;;;;;;2.15;1.25;;;14.80;74.50;;;;;;2293728;62;30469;-81
2021/12/08 14:34:39;;;;;;;3.40;1.35;;;14.80;74.60;;;;;;2286254;62;30082;-81
2021/12/08 14:37:11;;;;;;;1.38;0.95;;;14.80;74.60;;;;;;2289925;62;30544;-81
2021/12/08 14:39:48;;;;;;;2.20;0.98;;;14.80;74.70;;;;;;2288198;62;30097;-81
2021/12/08 14:42:21;;;;;;;2.17;1.08;;;14.70;74.70;;;;;;2286675;62;29989;-81
2021/12/08 14:44:52;;;;;;;2.08;1.17;;;14.70;74.80;;;;;;2286471;62;30295;-81
2021/12/08 14:47:29;;;;;;;2.00;1.23;;;14.70;74.80;;;;;;2293855;62;30085;-81
2021/12/08 14:50:01;;;;;;;1.88;0.90;;;14.70;74.80;;;;;;2286978;62;30254;-81
2021/12/08 14:52:35;;;;;;;2.00;1.33;;;14.70;74.80;;;;;;2286451;62;31832;-81
2021/12/08 14:55:02;;;;;;;2.72;0.90;;;14.70;74.90;;;;;;2293634;62;30030;-81
2021/12/08 14:57:35;;;;;;;1.70;1.00;;;14.60;75.00;;;;;;2293733;62;30139;-81
2021/12/08 15:00:05;;;;;;;1.45;0.98;;;14.60;75.10;;;;;;2286487;62;30115;-81
2021/12/08 15:02:39;;;;;;;1.13;0.93;;;14.50;75.20;;;;;;2286017;62;30098;-81
2021/12/08 15:05:12;;;;;;;2.25;1.02;;;14.50;75.30;;;;;;2279760;62;30215;-81
2021/12/08 15:07:38;;;;;;;1.40;0.98;;;14.50;75.40;;;;;;2286199;62;30060;-81
2021/12/08 15:10:08;;;;;;;1.98;0.90;;;14.50;75.40;;;;;;2293451;62;30133;-81
2021/12/08 15:12:38;;;;;;;1.27;0.77;;;14.50;75.50;;;;;;2279475;62;30107;-81
2021/12/08 15:15:21;;;;;;;0.82;0.82;;;14.40;75.40;;;;;;2286216;62;30073;-81
2021/12/08 15:17:48;;;;;;;1.42;1.00;;;14.50;75.60;;;;;;2286106;62;29931;-81
2021/12/08 15:20:15;;;;;;;1.52;0.80;;;14.50;75.60;;;;;;2286240;62;30249;-80
2021/12/08 15:22:43;;;;;;;1.85;0.95;;;14.50;75.50;;;;;;2285885;62;30257;-81
2021/12/08 15:25:09;;;;;;;1.10;1.00;;;14.40;75.60;;;;;;2286297;62;30257;-81
2021/12/08 15:27:38;;;;;;;0.90;0.70;;;14.40;75.60;;;;;;2293577;62;29994;-81
2021/12/08 15:30:08;;;;;;;2.13;0.93;;;14.30;75.70;;;;;;2286138;62;30059;-81
2021/12/08 15:32:34;;;;;;;0.82;0.82;;;14.30;75.80;;;;;;2279416;62;30677;-80
2021/12/08 15:35:08;;;;;;;1.83;1.00;;;14.30;75.90;;;;;;2293643;62;30468;-81
2021/12/08 15:37:36;;;;;;;1.42;0.90;;;14.30;76.00;;;;;;2285907;62;30218;-69
2021/12/08 15:40:03;;;;;;;1.83;0.98;;;14.30;75.90;;;;;;2293638;62;31170;-69
2021/12/08 15:42:33;;;;;;;0.70;0.70;;;14.40;75.90;;;;;;2293621;62;30147;-76
2021/12/08 15:45:06;;;;;;;1.23;1.00;;;14.40;75.90;;;;;;2279063;62;30028;-76
2021/12/08 15:47:43;;;;;;;1.25;0.80;;;14.50;75.90;;;;;;2286384;62;30324;-75
2021/12/08 15:50:21;;;;;;;1.80;0.80;;;14.50;75.90;;;;;;2286092;62;30115;-73
2021/12/08 15:52:56;;;;;;;4.50;1.42;;;14.60;75.80;;;;;;2293180;62;30981;-77
2021/12/08 15:55:28;;;;;;;1.35;1.08;;;14.60;75.80;;;;;;2285920;62;30012;-77
2021/12/08 15:58:04;;;;;;;4.25;1.30;;;14.70;75.70;;;;;;2292907;62;30143;-75
2021/12/08 16:00:38;;;;;;;3.35;1.00;;;14.80;75.70;;;;;;2292683;62;31979;-77
2021/12/08 16:03:04;;;;;;;1.38;0.93;;;14.90;75.60;;;;;;2293187;62;30025;-76
2021/12/08 16:05:30;;;;;;;4.43;1.17;;;15.00;75.60;;;;;;2292954;62;30461;-77
2021/12/08 16:07:59;;;;;;;1.95;0.88;;;15.20;75.40;;;;;;2293147;62;30269;-78
2021/12/08 16:10:30;;;;;;;1.02;0.77;;;15.20;75.20;;;;;;2292871;62;30497;-75
2021/12/08 16:13:07;;;;;;;1.10;0.82;;;15.30;75.00;;;;;;2292649;62;30512;-77
2021/12/08 16:15:37;;;;;;;1.98;1.00;;;15.40;75.00;;;;;;2285128;62;30276;-78
2021/12/08 16:18:03;;;;;;;2.55;1.13;;;15.50;74.90;;;;;;2293293;62;30153;-78
2021/12/08 16:20:29;;;;;;;3.38;1.10;;;15.50;74.70;;;;;;2293020;62;30253;-76
2021/12/08 16:22:55;;;;;;;3.30;1.33;;;15.60;74.60;;;;;;2285754;62;30666;-76
2021/12/08 16:25:21;;;;;;;1.15;0.85;;;15.70;74.50;;;;;;2293193;62;30038;-76
2021/12/08 16:27:52;;;;;;;3.05;1.08;;;15.70;74.40;;;;;;2278578;62;30556;-77
2021/12/08 16:30:18;;;;;;;1.85;1.20;;;15.70;74.30;;;;;;2293298;62;30252;-77
2021/12/08 16:32:44;;;;;;;2.38;1.25;;;15.70;74.20;;;;;;2285765;62;30557;-75
2021/12/08 16:35:10;;;;;;;2.33;0.93;;;15.80;74.20;;;;;;2292983;62;29959;-74
2021/12/08 16:37:39;;;;;;;1.63;1.30;;;15.80;74.10;;;;;;2293223;62;30077;-74
2021/12/08 16:45:24;;;;;;;2.90;1.00;;;15.80;74.00;;;;;;2280997;62;30304;-72
2021/12/08 16:47:50;;;;;;;3.92;1.58;;;15.90;74.10;;;;;;2285582;62;30262;-72
2021/12/08 16:50:18;;;;;;;1.88;1.13;;;15.90;74.00;;;;;;2278924;62;30077;-72
2021/12/08 16:52:44;;;;;;;2.38;1.00;;;15.90;74.00;;;;;;2293019;62;30500;-72
2021/12/08 16:55:13;;;;;;;4.32;1.25;;;15.90;74.00;;;;;;2285361;62;30647;-71
2021/12/08 16:57:43;;;;;;;1.60;1.30;;;15.90;74.00;;;;;;2293116;62;30156;-74
2021/12/08 17:00:11;;;;;;;4.78;1.33;;;15.90;74.00;;;;;;2285686;62;31109;-74
2021/12/08 17:02:37;;;;;;;3.55;1.30;;;15.90;74.00;;;;;;2292800;62;30601;-74
2021/12/08 17:05:03;;;;;;;2.63;0.90;;;16.00;74.00;;;;;;2292959;62;30025;-74
2021/12/08 17:07:29;;;;;;;4.55;1.40;;;15.90;74.00;;;;;;2284859;62;30201;-74
2021/12/08 17:09:58;;;;;;;2.22;1.00;;;16.00;74.00;;;;;;2284868;62;30097;-74
2021/12/08 17:12:24;;;;;;;3.38;1.15;;;16.00;73.90;;;;;;2289115;62;30480;-74
2021/12/08 17:14:50;;;;;;;1.90;1.30;;;15.90;73.90;;;;;;2288669;62;30068;-74
2021/12/08 17:17:16;;;;;;;2.08;1.30;;;16.00;74.00;;;;;;2292494;62;30199;-74
2021/12/08 17:19:43;;;;;;;2.58;1.17;;;16.00;73.90;;;;;;2285436;62;30181;-75
2021/12/08 17:22:09;;;;;;;1.67;0.85;;;15.90;73.90;;;;;;2292716;62;30573;-75
2021/12/08 17:24:36;;;;;;;1.92;1.20;;;16.00;73.90;;;;;;2292560;62;30053;-75
2021/12/08 17:27:04;;;;;;;1.77;1.13;;;16.00;73.90;;;;;;2283979;62;30471;-73
2021/12/08 17:29:30;;;;;;;1.35;1.23;;;16.00;73.90;;;;;;2284287;62;30843;-74
2021/12/08 17:31:56;;;;;;;1.95;1.45;;;15.90;73.80;;;;;;2284516;62;30568;-75
2021/12/08 17:34:22;;;;;;;2.30;1.42;;;16.00;73.90;;;;;;2277037;62;30111;-75
2021/12/08 17:36:48;;;;;;;2.58;1.38;;;16.00;73.80;;;;;;2276732;62;30333;-74
2021/12/08 17:39:14;;;;;;;2.55;1.20;;;16.00;73.80;;;;;;2283857;62;30091;-74
2021/12/08 17:41:42;;;;;;;2.13;1.35;;;16.00;73.80;;;;;;2284484;62;30264;-75
2021/12/08 17:44:08;;;;;;;1.20;1.10;;;16.00;73.70;;;;;;2283525;62;30057;-74
2021/12/08 17:46:34;;;;;;;1.30;1.20;;;15.90;73.70;;;;;;2284459;62;30018;-74
2021/12/08 17:49:02;;;;;;;3.50;1.65;;;15.90;73.60;;;;;;2284395;62;30107;-74
2021/12/08 17:51:28;;;;;;;3.80;1.58;;;15.90;73.70;;;;;;2283742;62;30577;-74
2021/12/08 17:53:54;;;;;;;4.88;1.75;;;15.80;73.70;;;;;;2284462;62;30159;-74
2021/12/08 17:56:22;;;;;;;3.03;1.65;;;15.80;74.00;;;;;;2284522;62;30182;-74
2021/12/08 17:58:48;;;;;;;4.43;1.55;;;15.80;74.00;;;;;;2284216;62;30261;-74
2021/12/08 18:01:14;;;;;;;2.90;1.60;;;15.80;74.30;;;;;;2283909;62;30515;-74
2021/12/08 18:03:41;;;;;;;2.60;1.80;;;15.80;74.40;;;;;;2283853;62;30120;-74
2021/12/08 18:06:06;;;;;;;4.47;2.00;;;15.80;74.40;;;;;;2287030;62;30139;-74
2021/12/08 18:08:34;;;;;;;3.72;1.77;;;15.80;74.40;;;;;;2293808;62;30808;-74
2021/12/08 18:11:03;;;;;;;3.13;1.80;;;15.80;74.40;;;;;;2281193;62;33638;-74
2021/12/08 18:13:30;;;;;;;3.90;1.77;;;15.70;74.50;;;;;;2278176;62;30079;-74
2021/12/08 18:15:57;;;;;;;5.88;1.98;;;15.70;74.50;;;;;;2278308;62;30022;-74
2021/12/08 18:18:23;;;;;;;4.15;2.00;;;15.70;74.60;;;;;;2285422;62;30830;-79
2021/12/08 18:20:49;;;;;;;4.80;2.38;;;15.70;74.80;;;;;;2284913;62;30220;-75
2021/12/08 18:23:15;;;;;;;3.10;2.05;;;15.70;74.80;;;;;;2285663;62;30281;-77
2021/12/08 18:25:41;;;;;;;2.80;1.85;;;15.80;74.70;;;;;;2284776;62;30294;-76
2021/12/08 18:28:10;;;;;;;6.50;2.08;;;15.80;74.60;;;;;;2284547;62;30286;-73
2021/12/08 18:30:37;;;;;;;2.85;1.95;;;15.80;74.50;;;;;;2279063;62;30251;-74
2021/12/08 18:33:03;;;;;;;3.38;1.88;;;15.80;74.30;;;;;;2285312;62;30096;-76
2021/12/08 18:38:04;;;;;;;2.63;1.80;;;15.80;74.20;;;;;;2284953;62;30944;-76
2021/12/08 18:40:32;;;;;;;2.40;1.70;;;15.90;74.30;;;;;;2285227;62;30311;-76
2021/12/08 18:42:58;;;;;;;3.92;1.80;;;16.00;74.20;;;;;;2278188;62;30274;-77
2021/12/08 18:45:24;;;;;;;3.25;1.98;;;16.10;74.10;;;;;;2277768;62;30099;-75
2021/12/08 18:47:50;;;;;;;3.13;1.90;;;16.20;74.00;;;;;;2277763;62;30110;-76
2021/12/08 18:50:16;;;;;;;4.32;1.83;;;16.40;73.80;;;;;;2278021;62;30121;-75
2021/12/08 18:52:42;;;;;;;3.17;1.90;;;16.50;73.60;;;;;;2278043;62;30043;-74
2021/12/08 18:55:08;;;;;;;2.85;1.60;;;16.70;73.50;;;;;;2285200;62;29948;-77
2021/12/08 18:57:35;;;;;;;2.40;1.40;;;16.70;73.20;;;;;;2285072;62;31077;-77
2021/12/08 19:00:05;;;;;;;2.10;1.50;;;16.80;73.00;;;;;;2285471;62;30781;-77
2021/12/08 19:02:31;;;;;;;1.75;1.42;;;16.80;72.80;;;;;;2285274;62;30539;-77
2021/12/08 19:04:57;;;;;;;1.58;1.35;;;16.80;72.70;;;;;;2285629;62;30276;-76
2021/12/08 19:07:27;;;;;;;2.50;1.63;;;16.90;72.60;;;;;;2285316;62;30793;-76
2021/12/08 19:09:53;;;;;;;2.30;1.50;;;16.90;72.60;;;;;;2281527;62;30051;-75
2021/12/08 19:12:19;;;;;;;4.32;1.90;;;16.90;72.50;;;;;;2277895;62;30111;-75
2021/12/08 19:14:45;;;;;;;2.13;1.60;;;16.90;72.50;;;;;;2277479;62;30112;-75
2021/12/08 19:17:11;;;;;;;2.97;1.60;;;16.90;72.50;;;;;;2284521;62;30233;-75
2021/12/08 19:19:38;;;;;;;4.53;1.73;;;16.90;72.50;;;;;;2285164;62;30200;-75
2021/12/08 19:22:07;;;;;;;2.03;1.60;;;16.90;72.50;;;;;;2284832;62;30251;-75
2021/12/08 19:24:37;;;;;;;5.20;1.33;;;16.90;72.50;;;;;;2285173;62;30176;-74
2021/12/08 19:27:03;;;;;;;2.60;1.50;;;16.90;72.50;;;;;;2285081;62;31285;-75
2021/12/08 19:29:29;;;;;;;2.00;1.20;;;16.90;72.60;;;;;;2284358;62;30005;-75
2021/12/08 19:31:54;;;;;;;4.32;1.60;;;16.90;72.50;;;;;;2285123;62;29926;-74
2021/12/08 19:34:22;;;;;;;1.98;1.40;;;16.90;72.60;;;;;;2284411;62;30037;-75
2021/12/08 19:36:48;;;;;;;2.00;1.60;;;16.90;72.60;;;;;;2284828;62;30138;-75
2021/12/08 19:39:15;;;;;;;2.25;1.45;;;16.90;72.50;;;;;;2285041;62;30193;-75
2021/12/08 19:41:41;;;;;;;1.88;1.38;;;16.90;72.50;;;;;;2284537;62;30993;-75
2021/12/08 19:44:07;;;;;;;1.65;1.40;;;16.90;72.50;;;;;;2284221;62;30078;-75
2021/12/08 19:46:34;;;;;;;2.33;1.38;;;16.90;72.50;;;;;;2284525;62;30015;-75
2021/12/08 19:49:20;;;;;;;1.88;1.40;;;16.90;72.50;;;;;;2278744;62;32108;-76
2021/12/08 19:51:48;;;;;;;8.52;1.90;;;16.90;72.50;;;;;;2284110;62;30186;-70
2021/12/08 19:54:15;;;;;;;2.75;1.42;;;16.90;73.20;;;;;;2284729;62;30078;-71
2021/12/08 19:56:41;;;;;;;1.27;1.23;;;16.90;72.40;;;;;;2284370;62;30242;-72
2021/12/08 19:59:09;;;;;;;3.42;1.30;;;16.90;72.40;;;;;;2284262;62;30833;-71
2021/12/08 20:01:35;;;;;;;2.85;1.40;;;17.00;72.30;;;;;;2284980;62;30374;-71
2021/12/08 20:04:01;;;;;;;1.65;1.50;;;17.00;72.30;;;;;;2284639;62;30561;-72
2021/12/08 20:06:27;;;;;;;1.77;1.38;;;17.00;72.10;;;;;;2284328;62;30215;-72
2021/12/08 20:08:52;;;;;;;2.08;1.52;;;17.00;72.10;;;;;;2284634;62;29986;-73
2021/12/08 20:11:19;;;;;;;1.73;1.33;;;17.00;72.00;;;;;;2277248;62;30113;-73
2021/12/08 20:13:46;;;;;;;1.85;1.30;;;17.10;72.00;;;;;;2284912;62;30185;-73
2021/12/08 20:16:12;;;;;;;1.98;1.30;;;17.10;72.00;;;;;;2284264;62;30221;-71
2021/12/08 20:18:40;;;;;;;2.42;1.10;;;17.10;71.90;;;;;;2283961;62;30575;-72
2021/12/08 20:21:06;;;;;;;3.10;1.40;;;17.10;71.90;;;;;;2278605;62;30081;-71
2021/12/08 20:23:36;;;;;;;4.88;1.60;;;17.10;71.90;;;;;;2284536;62;30059;-71
2021/12/08 20:26:02;;;;;;;2.83;1.58;;;17.10;71.80;;;;;;2270913;62;30116;-73
2021/12/08 20:28:28;;;;;;;2.38;1.50;;;17.10;71.80;;;;;;2277003;62;30648;-71
2021/12/08 20:30:54;;;;;;;2.85;1.25;;;17.10;71.80;;;;;;2277372;62;30395;-72
2021/12/08 20:33:20;;;;;;;1.58;1.48;;;17.10;71.80;;;;;;2284651;62;30402;-71
2021/12/08 20:35:46;;;;;;;2.83;1.90;;;17.00;71.70;;;;;;2284516;62;30894;-71
2021/12/08 20:38:12;;;;;;;2.08;1.40;;;17.00;71.60;;;;;;2284305;62;30476;-71
2021/12/08 20:40:40;;;;;;;2.10;1.50;;;16.90;71.90;;;;;;2283888;62;30080;-72
2021/12/08 20:43:06;;;;;;;2.08;1.42;;;16.90;72.00;;;;;;2283683;62;30020;-71
2021/12/08 20:45:34;;;;;;;2.22;1.70;;;16.90;72.00;;;;;;2277231;62;30668;-72
2021/12/08 20:48:00;;;;;;;2.20;1.63;;;16.90;72.00;;;;;;2284257;62;30003;-71
2021/12/08 20:50:26;;;;;;;2.15;1.80;;;16.90;72.00;;;;;;2284579;62;30197;-71
2021/12/08 20:52:52;;;;;;;4.07;1.58;;;16.90;72.00;;;;;;2277310;62;29993;-71
2021/12/08 20:55:18;;;;;;;3.90;1.48;;;16.90;72.00;;;;;;2284354;62;30167;-71
2021/12/08 20:57:45;;;;;;;4.32;1.60;;;16.90;72.00;;;;;;2277307;62;30188;-71
2021/12/08 21:00:24;;;;;;;2.78;1.60;;;17.00;72.00;;;;;;2277117;62;30108;-71
2021/12/08 21:02:50;;;;;;;3.03;1.83;;;17.00;72.00;;;;;;2277946;62;30126;-72
2021/12/08 21:05:16;;;;;;;3.08;1.50;;;17.00;71.90;;;;;;2287469;62;30506;-73
2021/12/08 21:07:43;;;;;;;2.15;1.52;;;17.00;71.90;;;;;;2282938;62;30550;-71
2021/12/08 21:10:09;;;;;;;3.30;1.58;;;17.00;71.90;;;;;;2283606;62;30074;-71
2021/12/08 21:12:36;;;;;;;2.95;1.90;;;17.00;71.80;;;;;;2283188;62;30218;-72
2021/12/08 21:15:08;;;;;;;3.78;1.90;;;17.00;71.80;;;;;;2279229;62;30731;-72
2021/12/08 21:17:35;;;;;;;2.30;1.38;;;17.00;71.70;;;;;;2283684;62;30217;-72
2021/12/08 21:20:01;;;;;;;3.78;1.73;;;17.00;71.70;;;;;;2276157;62;30219;-72
2021/12/08 21:22:27;;;;;;;1.40;1.30;;;17.10;71.70;;;;;;2283389;62;30423;-72
2021/12/08 21:24:53;;;;;;;3.05;1.73;;;17.10;71.60;;;;;;2283532;62;30022;-72
2021/12/08 21:27:19;;;;;;;2.58;1.67;;;17.10;71.60;;;;;;2288746;62;30768;-73
2021/12/08 21:29:45;;;;;;;2.03;1.40;;;17.10;71.50;;;;;;2291555;62;30230;-73
2021/12/08 21:32:11;;;;;;;1.90;1.45;;;17.10;71.40;;;;;;2291606;62;30630;-72
2021/12/08 21:34:37;;;;;;;1.40;1.30;;;17.10;71.40;;;;;;2291828;62;30106;-72
2021/12/08 21:37:04;;;;;;;2.20;1.25;;;17.10;71.40;;;;;;2284064;62;30579;-72
2021/12/08 21:39:31;;;;;;;2.17;1.45;;;17.10;71.40;;;;;;2284361;62;30490;-73
2021/12/08 21:41:57;;;;;;;1.73;1.55;;;17.10;71.40;;;;;;2290795;62;30308;-72
2021/12/08 21:44:23;;;;;;;2.95;1.30;;;17.10;71.40;;;;;;2291274;62;30347;-72
2021/12/08 21:46:49;;;;;;;1.95;1.48;;;17.10;71.30;;;;;;2290703;62;30426;-73
2021/12/08 21:49:16;;;;;;;1.83;1.48;;;17.10;71.40;;;;;;2291697;62;30499;-71
2021/12/08 21:51:42;;;;;;;1.38;1.27;;;17.10;71.30;;;;;;2290924;62;30542;-71
2021/12/08 21:54:07;;;;;;;2.25;1.40;;;17.10;71.30;;;;;;2291482;62;30820;-72
2021/12/08 21:56:33;;;;;;;1.48;1.38;;;17.10;71.30;;;;;;2291378;62;30712;-72
2021/12/08 21:59:00;;;;;;;2.17;1.60;;;17.10;71.30;;;;;;2291505;62;30296;-71
2021/12/08 22:01:27;;;;;;;2.65;1.50;;;17.10;71.30;;;;;;2291341;62;30422;-72
2021/12/08 22:03:53;;;;;;;1.52;1.30;;;17.10;71.30;;;;;;2291146;62;30951;-71
2021/12/08 22:06:19;;;;;;;1.98;1.20;;;17.10;71.30;;;;;;2291439;62;30615;-71
2021/12/08 22:08:45;;;;;;;1.42;1.33;;;17.10;71.30;;;;;;2291424;62;29996;-72
2021/12/08 22:11:11;;;;;;;1.30;1.20;;;17.10;71.30;;;;;;2283597;62;30460;-73
2021/12/08 22:13:37;;;;;;;1.63;1.52;;;17.00;71.20;;;;;;2291337;62;30864;-71
2021/12/08 22:16:03;;;;;;;1.52;1.20;;;17.10;71.20;;;;;;2291389;62;30680;-72
2021/12/08 22:18:36;;;;;;;2.10;1.50;;;17.10;71.30;;;;;;2291328;62;30365;-72
2021/12/08 22:21:07;;;;;;;1.67;1.52;;;17.10;71.30;;;;;;2284274;62;30017;-71
2021/12/08 22:23:33;;;;;;;1.63;1.40;;;17.00;71.20;;;;;;2291449;62;31125;-71
2021/12/08 22:25:59;;;;;;;1.17;1.08;;;17.00;71.20;;;;;;2283323;62;30061;-70
2021/12/08 22:28:25;;;;;;;1.33;1.23;;;17.00;71.20;;;;;;2291431;62;30153;-71
2021/12/08 22:30:51;;;;;;;2.05;1.15;;;17.00;71.30;;;;;;2291282;62;30521;-71
2021/12/08 22:33:22;;;;;;;1.30;1.20;;;17.00;71.20;;;;;;2291071;62;30856;-72
2021/12/08 22:35:47;;;;;;;1.50;1.30;;;17.00;71.20;;;;;;2291299;62;31831;-71
2021/12/08 22:38:13;;;;;;;1.60;1.40;;;17.00;71.30;;;;;;2291270;62;30416;-72
2021/12/08 22:40:39;;;;;;;1.58;1.45;;;17.00;71.30;;;;;;2283625;62;30425;-72
2021/12/08 22:43:05;;;;;;;2.00;1.50;;;17.00;71.30;;;;;;2291239;62;30770;-73
2021/12/08 22:45:31;;;;;;;3.92;2.30;;;17.00;71.20;;;;;;2277003;62;30302;-73
2021/12/08 22:47:57;;;;;;;3.78;2.70;;;17.00;71.20;;;;;;2273295;62;30147;-71
2021/12/08 22:50:32;;;;;;;7.22;2.92;;;17.00;71.20;;;;;;2282678;62;30152;-72
2021/12/08 22:52:58;;;;;;;3.30;2.10;;;17.00;71.20;;;;;;2280244;62;30288;-71
2021/12/08 22:55:24;;;;;;;2.72;1.90;;;17.00;71.20;;;;;;2282820;62;30223;-72
2021/12/08 22:57:50;;;;;;;3.88;1.80;;;17.00;71.20;;;;;;2278060;62;30081;-73